Greenland, MI (49929)

11:32 AM EDT on July 05, 2015 (GMT -0400)
MesoWest | | Change Station
CLOSE
Current Station
Personal Weather Station
Location: Rockland, MI
Elevation: 1026 ft
Nearby Weather Stations

Elev 1026 ft 46.72 °N, 89.15 °W | Updated 37 minutes ago

Clear
Clear
75 °F
Feels Like 76 °F
N
10
Wind Variable Wind from South
Gusts 15.0 mph

Today
High -- | Low -- °F
--% Chance of Precip.
Yesterday
High -- | Low -- °F
Precip. -- in
6:08 AM 9:52 PM
Waning Gibbous, 84% visible
Pressure 29.94 in
Visibility 7.0 miles
Clouds Clear
Heat Index 76 °F
Dew Point 65 °F
Humidity 72%
Rainfall in
Snow Depth Not available.
UV 6 out of 12
Pollen 5.10 out of 12
Air Quality Not available.
Flu Activity Not available.
METAR KCMX 051453Z AUTO 19006KT 7SM CLR 23/18 A2994 RMK AO2 SLP138 T02330183 56004

More Conditions Fewer Conditions

Pressure 29.94 in
Visibility 7.0 miles
Clouds Clear
Heat Index 76 °F
Dew Point 65 °F
Humidity 72%
Rainfall in
Snow Depth Not available.
UV 6 out of 12
Pollen 5.10 out of 12
Air Quality Not available.
Flu Activity Not available.
METAR KCMX 051453Z AUTO 19006KT 7SM CLR 23/18 A2994 RMK AO2 SLP138 T02330183 56004

More Conditions Fewer Conditions

10-Day Weather Forecast

×

Almanac

Astronomy

Jul. 05, 2015 Rise Set
Actual Time
Civil Twilight
Nautical Twilight
Astronomical Twilight
Moon
Length of Visible Light
Length of Day
Tomorrow will be .
, % of the Moon is Illuminated

Today's Extremes

State Highs State Lows

Community

WunderPhotos

Upload Photos

1,835,288 photos uploaded!

WunderBlogs® & News

Nearby

Air Quality

  Air Quality AQ Index Pollutant
Not available.

Snow Depth

Station Depth Elevation

Earthquake Activity

City Distance Mag. Time & Date
Minimum magnitude displayed is 2.5.

Coastal Water Temperatures

Place Temperature

Stations

Nearby Weather Stations

Station Location Temp. Windchill Dew Point Humidity Wind Precip. Elev Updated Type